createdAt,value
2017-10-21T00:00:33.204Z,10.60
2017-10-21T00:03:00.629Z,10.50
2017-10-21T00:05:28.054Z,10.60
2017-10-21T00:07:56.289Z,10.70
2017-10-21T00:10:23.738Z,10.60
2017-10-21T00:12:51.196Z,10.70
2017-10-21T00:15:18.629Z,10.70
2017-10-21T00:17:46.122Z,10.80
2017-10-21T00:20:13.549Z,10.80
2017-10-21T00:22:40.983Z,10.80
2017-10-21T00:25:09.194Z,10.80
2017-10-21T00:27:36.626Z,10.70
2017-10-21T00:30:04.129Z,10.80
2017-10-21T00:32:31.567Z,10.80
2017-10-21T00:34:59.052Z,10.90
2017-10-21T00:37:26.481Z,10.90
2017-10-21T00:39:53.929Z,10.90
2017-10-21T00:42:21.418Z,11.00
2017-10-21T00:44:48.872Z,11.00
2017-10-21T00:47:16.297Z,11.00
2017-10-21T00:49:43.843Z,11.00
2017-10-21T00:52:12.028Z,11.00
2017-10-21T00:54:39.476Z,11.00
2017-10-21T00:57:07.669Z,11.00
2017-10-21T00:59:35.461Z,11.00
2017-10-21T01:02:02.895Z,11.10
2017-10-21T01:04:30.325Z,11.00
2017-10-21T01:06:58.531Z,10.90
2017-10-21T01:09:25.966Z,10.80
2017-10-21T01:11:53.401Z,10.80
2017-10-21T01:14:21.607Z,10.60
2017-10-21T01:16:49.060Z,10.60
2017-10-21T01:19:16.549Z,10.60
2017-10-21T01:21:44.002Z,10.60
2017-10-21T01:24:11.445Z,10.60
2017-10-21T01:26:38.884Z,10.60
2017-10-21T01:29:06.334Z,10.60
2017-10-21T01:31:34.535Z,10.70
2017-10-21T01:34:01.993Z,10.60
2017-10-21T01:36:29.431Z,10.60
2017-10-21T01:38:56.861Z,10.60
2017-10-21T01:41:24.314Z,10.60
2017-10-21T01:43:51.849Z,10.50
2017-10-21T01:46:19.306Z,10.50
2017-10-21T01:48:46.749Z,10.50
2017-10-21T01:51:14.201Z,10.50
2017-10-21T01:53:41.626Z,10.60
2017-10-21T01:56:09.852Z,10.60
2017-10-21T01:58:37.289Z,10.50
2017-10-21T02:01:04.730Z,10.60
2017-10-21T02:03:32.221Z,10.60
2017-10-21T02:05:59.658Z,10.60
2017-10-21T02:08:27.101Z,10.50
2017-10-21T02:10:54.593Z,10.50
2017-10-21T02:13:22.030Z,10.50
2017-10-21T02:15:49.474Z,10.50
2017-10-21T02:18:16.904Z,10.50
2017-10-21T02:20:45.117Z,10.60
2017-10-21T02:23:12.537Z,10.50
2017-10-21T02:25:40.757Z,10.50
2017-10-21T02:28:08.206Z,10.40
2017-10-21T02:30:35.646Z,10.40
2017-10-21T02:33:03.102Z,10.30
2017-10-21T02:35:30.553Z,10.20
2017-10-21T02:37:58.774Z,10.10
2017-10-21T02:40:26.232Z,10.00
2017-10-21T02:42:53.678Z,10.00
2017-10-21T02:45:21.121Z,10.00
2017-10-21T02:47:48.552Z,10.00
2017-10-21T02:50:16.765Z,10.00
2017-10-21T02:52:44.225Z,9.90
2017-10-21T02:55:11.669Z,9.90
2017-10-21T02:57:39.103Z,9.90
2017-10-21T03:00:07.639Z,10.00
2017-10-21T03:02:35.061Z,9.90
2017-10-21T03:05:02.502Z,10.00
2017-10-21T03:07:30.713Z,10.10
2017-10-21T03:09:58.148Z,10.00
2017-10-21T03:12:25.590Z,10.10
2017-10-21T03:14:53.797Z,10.10
2017-10-21T03:17:21.251Z,10.00
2017-10-21T03:19:48.688Z,10.10
2017-10-21T03:22:16.146Z,10.10
2017-10-21T03:24:43.581Z,10.20
2017-10-21T03:27:11.092Z,10.20
2017-10-21T03:29:38.551Z,10.20
2017-10-21T03:32:05.972Z,10.30
2017-10-21T03:34:33.421Z,10.30
2017-10-21T03:37:01.617Z,10.40
2017-10-21T03:39:29.062Z,10.30
2017-10-21T03:41:56.497Z,10.40
2017-10-21T03:44:24.714Z,10.40
2017-10-21T03:46:52.143Z,10.40
2017-10-21T03:49:20.341Z,10.40
2017-10-21T03:51:47.833Z,10.40
2017-10-21T03:54:15.273Z,10.50
2017-10-21T03:56:42.838Z,10.50
2017-10-21T03:59:10.269Z,10.50
2017-10-21T04:01:38.070Z,10.50
2017-10-21T04:04:05.489Z,10.50
2017-10-21T04:06:32.918Z,10.50
2017-10-21T04:09:01.130Z,10.50
2017-10-21T04:11:28.610Z,10.40
2017-10-21T04:13:56.061Z,10.50
2017-10-21T04:16:23.502Z,10.50
2017-10-21T04:18:50.942Z,10.50
2017-10-21T04:21:18.377Z,10.50
2017-10-21T04:23:46.595Z,10.50
2017-10-21T04:26:14.057Z,10.50
2017-10-21T04:28:41.478Z,10.50
2017-10-21T04:31:09.701Z,10.60
2017-10-21T04:33:37.165Z,10.50
2017-10-21T04:36:04.590Z,10.50
2017-10-21T04:38:32.077Z,10.60
2017-10-21T04:40:59.525Z,10.60
2017-10-21T04:43:26.973Z,10.60
2017-10-21T04:45:54.405Z,10.50
2017-10-21T04:48:21.908Z,10.50
2017-10-21T04:50:49.345Z,10.50
2017-10-21T04:53:16.817Z,10.50
2017-10-21T04:55:44.261Z,10.40
2017-10-21T04:58:11.738Z,10.40
2017-10-21T05:00:39.181Z,10.40
2017-10-21T05:03:06.632Z,10.40
2017-10-21T05:05:34.069Z,10.30
2017-10-21T05:08:01.518Z,10.30
2017-10-21T05:10:29.718Z,10.10
2017-10-21T05:12:57.309Z,10.10
2017-10-21T05:15:24.730Z,10.00
2017-10-21T05:17:52.185Z,10.00
2017-10-21T05:20:19.633Z,10.00
2017-10-21T05:22:47.828Z,9.90
2017-10-21T05:25:15.297Z,9.80
2017-10-21T05:27:42.728Z,9.80
2017-10-21T05:30:10.185Z,9.80
2017-10-21T05:32:37.615Z,9.70
2017-10-21T05:35:05.828Z,9.70
2017-10-21T05:37:33.265Z,9.70
2017-10-21T05:40:00.705Z,9.70
2017-10-21T05:42:28.911Z,9.80
2017-10-21T05:44:56.353Z,9.70
2017-10-21T05:47:24.554Z,9.90
2017-10-21T05:49:52.028Z,9.80
2017-10-21T05:52:19.482Z,9.90
2017-10-21T05:54:46.929Z,10.00
2017-10-21T05:57:14.366Z,10.00
2017-10-21T05:59:41.858Z,10.00
2017-10-21T06:02:09.281Z,9.90
2017-10-21T06:04:36.852Z,9.90
2017-10-21T06:07:04.273Z,9.80
2017-10-21T06:09:31.698Z,9.80
2017-10-21T06:11:59.128Z,9.80
2017-10-21T06:14:26.574Z,9.80
2017-10-21T06:16:54.021Z,9.80
2017-10-21T06:19:21.445Z,9.70
2017-10-21T06:21:49.663Z,9.80
2017-10-21T06:24:17.085Z,9.70
2017-10-21T06:26:45.302Z,9.90
2017-10-21T06:29:12.773Z,9.80
2017-10-21T06:31:40.218Z,9.90
2017-10-21T06:34:07.652Z,9.90
2017-10-21T06:36:35.085Z,10.00
2017-10-21T06:39:02.538Z,10.10
2017-10-21T06:41:30.743Z,10.20
2017-10-21T06:43:58.549Z,10.10
2017-10-21T06:46:26.015Z,10.20
2017-10-21T06:48:53.458Z,10.30
2017-10-21T06:51:20.909Z,10.40
2017-10-21T06:53:48.334Z,10.40
2017-10-21T06:56:16.645Z,10.60
2017-10-21T06:58:44.097Z,10.50
2017-10-21T07:01:11.532Z,10.70
2017-10-21T07:03:38.966Z,10.80
2017-10-21T07:06:07.165Z,11.00
2017-10-21T07:08:34.613Z,11.00
2017-10-21T07:11:02.814Z,11.30
2017-10-21T07:13:30.277Z,11.20
2017-10-21T07:15:57.710Z,11.40
2017-10-21T07:18:25.133Z,11.50
2017-10-21T07:20:53.373Z,11.60
2017-10-21T07:23:20.821Z,11.50
2017-10-21T07:25:48.299Z,11.60
2017-10-21T07:28:15.748Z,11.60
2017-10-21T07:30:43.181Z,11.70
2017-10-21T07:33:10.628Z,11.80
2017-10-21T07:35:38.062Z,11.90
2017-10-21T07:38:05.497Z,11.90
2017-10-21T07:40:33.757Z,12.00
2017-10-21T07:43:01.393Z,12.00
2017-10-21T07:45:28.870Z,12.10
2017-10-21T07:47:56.305Z,12.20
2017-10-21T07:50:23.780Z,12.20
2017-10-21T07:52:51.221Z,12.30
2017-10-21T07:55:18.665Z,13.20
2017-10-21T07:57:46.108Z,14.50
2017-10-21T08:00:13.541Z,15.40
2017-10-21T08:02:41.500Z,15.40
2017-10-21T08:05:08.962Z,15.50
2017-10-21T08:07:36.501Z,16.10
2017-10-21T08:10:03.934Z,16.20
2017-10-21T08:12:31.385Z,15.90
2017-10-21T08:14:58.830Z,15.70
2017-10-21T08:17:26.276Z,15.80
2017-10-21T08:19:54.469Z,17.60
2017-10-21T08:22:22.230Z,17.60
2017-10-21T08:24:50.433Z,18.20
2017-10-21T08:27:17.864Z,18.10
2017-10-21T08:29:45.318Z,19.10
2017-10-21T08:32:13.529Z,20.80
2017-10-21T08:34:41.314Z,20.70
2017-10-21T08:37:08.753Z,21.50
2017-10-21T08:39:36.185Z,22.00
2017-10-21T08:42:03.626Z,22.30
2017-10-21T08:44:31.141Z,23.10
2017-10-21T08:46:58.586Z,23.30
2017-10-21T08:49:26.023Z,22.70
2017-10-21T08:51:53.469Z,22.10
2017-10-21T08:54:20.916Z,21.30
2017-10-21T08:56:48.417Z,20.50
2017-10-21T08:59:15.878Z,19.80
2017-10-21T09:01:43.317Z,19.20
2017-10-21T09:04:10.797Z,18.70
2017-10-21T09:06:38.253Z,18.40
2017-10-21T09:09:05.706Z,18.10
2017-10-21T09:11:33.125Z,18.00
2017-10-21T09:14:00.569Z,18.40
2017-10-21T09:16:28.074Z,18.90
2017-10-21T09:18:55.509Z,19.20
2017-10-21T09:21:22.958Z,19.40
2017-10-21T09:23:50.386Z,19.40
2017-10-21T09:26:18.609Z,21.30
2017-10-21T09:28:46.343Z,21.20
2017-10-21T09:31:13.817Z,21.90
2017-10-21T09:33:41.304Z,22.30
2017-10-21T09:36:08.757Z,23.50
2017-10-21T09:38:36.419Z,23.90
2017-10-21T09:41:03.856Z,23.50
2017-10-21T09:43:31.294Z,22.80
2017-10-21T09:46:00.145Z,21.60
2017-10-21T09:48:28.493Z,21.60
2017-10-21T09:50:56.693Z,21.20
2017-10-21T09:53:24.253Z,20.70
2017-10-21T09:55:51.700Z,20.20
2017-10-21T09:58:19.134Z,19.80
2017-10-21T10:00:47.932Z,19.50
2017-10-21T10:03:16.180Z,19.00
2017-10-21T10:05:43.620Z,18.90
2017-10-21T10:08:11.837Z,18.50
2017-10-21T10:10:39.307Z,18.40
2017-10-21T10:13:06.795Z,18.40
2017-10-21T10:15:35.005Z,18.10
2017-10-21T10:18:02.443Z,18.00
2017-10-21T10:20:30.661Z,18.00
2017-10-21T10:22:58.185Z,17.90
2017-10-21T10:25:26.405Z,18.00
2017-10-21T10:27:53.827Z,17.90
2017-10-21T10:30:21.269Z,18.00
2017-10-21T10:32:49.587Z,18.00
2017-10-21T10:35:17.009Z,17.90
2017-10-21T10:37:45.229Z,17.80
2017-10-21T10:40:12.671Z,17.80
2017-10-21T10:42:40.122Z,17.80
2017-10-21T10:45:07.549Z,17.70
2017-10-21T10:47:35.766Z,17.70
2017-10-21T10:50:03.225Z,17.70
2017-10-21T10:52:30.645Z,17.70
2017-10-21T10:54:58.858Z,17.70
2017-10-21T10:57:26.328Z,17.70
2017-10-21T10:59:54.731Z,17.70
2017-10-21T11:02:22.152Z,17.70
2017-10-21T11:04:49.589Z,17.90
2017-10-21T11:07:17.016Z,18.00
2017-10-21T11:09:45.248Z,18.20
2017-10-21T11:12:12.800Z,18.10
2017-10-21T11:14:40.234Z,18.30
2017-10-21T11:17:07.673Z,18.50
2017-10-21T11:19:35.869Z,18.60
2017-10-21T11:22:03.314Z,18.50
2017-10-21T11:24:31.537Z,18.40
2017-10-21T11:26:58.969Z,18.40
2017-10-21T11:29:26.445Z,18.30
2017-10-21T11:31:53.896Z,18.20
2017-10-21T11:34:21.341Z,18.20
2017-10-21T11:36:48.782Z,18.10
2017-10-21T11:39:16.219Z,18.10
2017-10-21T11:41:44.418Z,18.10
2017-10-21T11:44:11.857Z,18.10
2017-10-21T11:46:40.050Z,18.20
2017-10-21T11:49:07.504Z,18.10
2017-10-21T11:51:34.951Z,18.10
2017-10-21T11:54:02.384Z,18.10
2017-10-21T11:56:29.828Z,18.10
2017-10-21T11:58:57.273Z,18.10
2017-10-21T12:01:24.833Z,18.10
2017-10-21T12:03:53.003Z,18.20
2017-10-21T12:06:20.437Z,18.20
2017-10-21T12:08:47.880Z,18.30
2017-10-21T12:11:15.315Z,18.50
2017-10-21T12:13:43.506Z,18.60
2017-10-21T12:16:11.711Z,18.50
2017-10-21T12:18:39.140Z,18.50
2017-10-21T12:21:07.341Z,18.40
2017-10-21T12:23:34.769Z,18.40
2017-10-21T12:26:02.196Z,18.40
2017-10-21T12:28:29.645Z,18.30
2017-10-21T12:30:57.071Z,18.20
2017-10-21T12:33:24.515Z,18.10
2017-10-21T12:35:51.959Z,18.00
2017-10-21T12:38:19.416Z,17.90
2017-10-21T12:40:46.864Z,17.80
2017-10-21T12:43:15.063Z,17.70
2017-10-21T12:45:42.518Z,17.60
2017-10-21T12:48:09.938Z,17.70
2017-10-21T12:50:38.164Z,17.80
2017-10-21T12:53:05.629Z,17.80
2017-10-21T12:55:33.080Z,18.00
2017-10-21T12:58:00.521Z,18.20
2017-10-21T13:00:27.993Z,18.30
2017-10-21T13:02:55.569Z,18.50
2017-10-21T13:05:23.009Z,18.70
2017-10-21T13:07:50.436Z,18.80
2017-10-21T13:10:17.881Z,18.90
2017-10-21T13:12:46.082Z,18.90
2017-10-21T13:15:13.569Z,18.90
2017-10-21T13:17:41.012Z,18.90
2017-10-21T13:20:08.461Z,18.90
2017-10-21T13:22:35.904Z,18.90
2017-10-21T13:25:03.393Z,18.80
2017-10-21T13:27:31.636Z,19.00
2017-10-21T13:29:59.838Z,19.20
2017-10-21T13:32:27.317Z,19.20
2017-10-21T13:34:54.774Z,19.30
2017-10-21T13:37:22.208Z,19.30
2017-10-21T13:39:49.651Z,19.30
2017-10-21T13:42:17.128Z,19.30
2017-10-21T13:44:44.572Z,19.10
2017-10-21T13:47:12.005Z,19.10
2017-10-21T13:49:39.448Z,19.00
2017-10-21T13:52:07.649Z,18.80
2017-10-21T13:54:35.101Z,18.80
2017-10-21T13:57:02.525Z,18.80
2017-10-21T13:59:29.957Z,18.70
2017-10-21T14:01:57.405Z,18.70
2017-10-21T14:04:24.833Z,18.70
2017-10-21T14:06:52.276Z,18.70
2017-10-21T14:09:20.466Z,18.60
2017-10-21T14:11:48.227Z,18.50
2017-10-21T14:14:16.422Z,18.30
2017-10-21T14:16:43.850Z,18.20
2017-10-21T14:19:11.289Z,18.20
2017-10-21T14:21:39.485Z,18.00
2017-10-21T14:24:06.925Z,18.00
2017-10-21T14:26:35.112Z,18.00
2017-10-21T14:29:03.317Z,18.00
2017-10-21T14:31:30.749Z,18.00
2017-10-21T14:33:58.175Z,18.00
2017-10-21T14:36:25.614Z,17.90
2017-10-21T14:38:53.044Z,17.90
2017-10-21T14:41:20.480Z,17.80
2017-10-21T14:43:47.924Z,17.80
2017-10-21T14:46:16.117Z,17.70
2017-10-21T14:48:43.587Z,17.60
2017-10-21T14:51:10.992Z,17.60
2017-10-21T14:53:38.465Z,17.60
2017-10-21T14:56:06.890Z,17.60
2017-10-21T14:58:34.381Z,17.50
2017-10-21T15:01:02.643Z,17.50
2017-10-21T15:03:30.118Z,17.50
2017-10-21T15:05:57.648Z,17.50
2017-10-21T15:08:25.132Z,17.50
2017-10-21T15:10:52.570Z,17.50
2017-10-21T15:13:20.018Z,17.50
2017-10-21T15:15:47.443Z,17.40
2017-10-21T15:18:14.880Z,17.40
2017-10-21T15:20:42.369Z,17.50
2017-10-21T15:23:09.805Z,17.50
2017-10-21T15:25:37.238Z,17.50
2017-10-21T15:28:04.741Z,17.40
2017-10-21T15:30:32.189Z,17.40
2017-10-21T15:32:59.661Z,17.30
2017-10-21T15:35:27.421Z,17.20
2017-10-21T15:37:54.849Z,17.20
2017-10-21T15:40:22.329Z,17.10
2017-10-21T15:42:49.774Z,17.10
2017-10-21T15:45:17.219Z,17.10
2017-10-21T15:47:44.652Z,17.10
2017-10-21T15:50:12.854Z,17.00
2017-10-21T15:52:40.290Z,17.00
2017-10-21T15:55:08.490Z,17.10
2017-10-21T15:57:35.917Z,17.00
2017-10-21T16:00:04.131Z,17.00
2017-10-21T16:02:31.560Z,16.90
2017-10-21T16:04:59.006Z,17.00
2017-10-21T16:07:27.201Z,16.90
2017-10-21T16:09:54.628Z,16.90
2017-10-21T16:12:22.853Z,16.90
2017-10-21T16:14:50.280Z,16.80
2017-10-21T16:17:18.489Z,16.80
2017-10-21T16:19:45.926Z,16.80
2017-10-21T16:22:13.381Z,16.80
2017-10-21T16:24:40.812Z,16.80
2017-10-21T16:27:09.010Z,16.70
2017-10-21T16:29:36.462Z,16.60
2017-10-21T16:32:03.957Z,16.60
2017-10-21T16:34:31.405Z,16.60
2017-10-21T16:36:58.855Z,16.60
2017-10-21T16:39:26.297Z,16.50
2017-10-21T16:41:53.760Z,16.50
2017-10-21T16:44:25.334Z,16.50
2017-10-21T16:46:56.570Z,16.50
2017-10-21T16:49:24.149Z,16.40
2017-10-21T16:51:51.601Z,16.40
2017-10-21T16:54:19.025Z,16.40
2017-10-21T16:56:46.469Z,16.30
2017-10-21T16:59:14.674Z,16.00
2017-10-21T17:01:42.110Z,16.00
2017-10-21T17:04:10.318Z,15.80
2017-10-21T17:06:37.750Z,15.80
2017-10-21T17:09:05.191Z,15.80
2017-10-21T17:11:33.382Z,15.70
2017-10-21T17:14:00.833Z,15.60
2017-10-21T17:16:28.257Z,15.60
2017-10-21T17:18:55.689Z,15.60
2017-10-21T17:21:23.137Z,15.50
2017-10-21T17:23:50.585Z,15.50
2017-10-21T17:26:18.035Z,15.40
2017-10-21T17:28:45.463Z,15.30
2017-10-21T17:31:13.657Z,15.30
2017-10-21T17:33:41.112Z,15.20
2017-10-21T17:36:08.557Z,15.20
2017-10-21T17:38:36.767Z,15.10
2017-10-21T17:41:04.741Z,15.10
2017-10-21T17:43:32.546Z,15.10
2017-10-21T17:46:00.381Z,15.10
2017-10-21T17:48:28.233Z,15.00
2017-10-21T17:50:56.085Z,15.00
2017-10-21T17:53:23.518Z,15.00
2017-10-21T17:55:51.761Z,14.80
2017-10-21T17:58:19.198Z,14.70
2017-10-21T18:00:46.637Z,14.70
2017-10-21T18:03:14.074Z,14.60
2017-10-21T18:05:42.277Z,14.50
2017-10-21T18:08:09.717Z,14.50
2017-10-21T18:10:37.153Z,14.50
2017-10-21T18:13:05.360Z,14.40
2017-10-21T18:15:32.805Z,14.30
2017-10-21T18:18:00.245Z,14.40
2017-10-21T18:20:28.445Z,14.30
2017-10-21T18:22:55.877Z,14.30
2017-10-21T18:25:24.089Z,14.30
2017-10-21T18:27:51.525Z,14.20
2017-10-21T18:30:18.978Z,14.30
2017-10-21T18:32:47.173Z,14.20
2017-10-21T18:35:14.613Z,14.10
2017-10-21T18:37:42.090Z,14.20
2017-10-21T18:40:09.560Z,14.10
2017-10-21T18:42:37.009Z,14.10
2017-10-21T18:45:04.452Z,14.10
2017-10-21T18:47:31.885Z,14.10
2017-10-21T18:50:00.101Z,14.00
2017-10-21T18:52:27.541Z,14.00
2017-10-21T18:54:55.022Z,14.00
2017-10-21T18:57:22.462Z,13.90
2017-10-21T18:59:50.732Z,13.90
2017-10-21T19:02:19.019Z,13.80
2017-10-21T19:04:46.444Z,13.80
2017-10-21T19:07:14.654Z,13.80
2017-10-21T19:09:42.089Z,13.70
2017-10-21T19:12:09.529Z,13.70
2017-10-21T19:14:37.748Z,13.70
2017-10-21T19:17:05.182Z,13.60
2017-10-21T19:19:32.620Z,13.60
2017-10-21T19:22:00.829Z,13.60
2017-10-21T19:24:28.256Z,13.50
2017-10-21T19:26:56.461Z,13.50
2017-10-21T19:29:23.894Z,13.50
2017-10-21T19:31:51.698Z,13.50
2017-10-21T19:34:19.141Z,13.50
2017-10-21T19:36:46.569Z,13.50
2017-10-21T19:39:14.012Z,13.40
2017-10-21T19:41:42.205Z,13.30
2017-10-21T19:44:10.420Z,13.20
2017-10-21T19:46:37.840Z,13.20
2017-10-21T19:49:05.272Z,13.20
2017-10-21T19:51:33.502Z,13.20
2017-10-21T19:54:00.934Z,13.10
2017-10-21T19:56:28.377Z,13.10
2017-10-21T19:58:55.818Z,13.10
2017-10-21T20:01:23.255Z,13.10
2017-10-21T20:03:51.460Z,13.10
2017-10-21T20:06:19.658Z,13.10
2017-10-21T20:08:47.101Z,13.10
2017-10-21T20:11:15.302Z,13.10
2017-10-21T20:13:42.741Z,13.10
2017-10-21T20:16:10.184Z,13.20
2017-10-21T20:18:38.398Z,13.10
2017-10-21T20:21:05.821Z,13.10
2017-10-21T20:23:34.019Z,13.10
2017-10-21T20:26:01.488Z,13.00
2017-10-21T20:28:28.892Z,13.00
2017-10-21T20:30:57.104Z,12.90
2017-10-21T20:33:24.537Z,12.90
2017-10-21T20:35:52.747Z,12.90
2017-10-21T20:38:20.185Z,12.90
2017-10-21T20:40:47.613Z,12.90
2017-10-21T20:43:15.058Z,12.90
2017-10-21T20:45:42.485Z,12.90
2017-10-21T20:48:09.952Z,12.80
2017-10-21T20:50:37.368Z,12.80
2017-10-21T20:53:04.800Z,12.90
2017-10-21T20:55:33.022Z,12.80
2017-10-21T20:58:00.453Z,12.80
2017-10-21T21:00:27.909Z,12.80
2017-10-21T21:02:56.113Z,12.70
2017-10-21T21:05:23.549Z,12.70
2017-10-21T21:07:50.976Z,12.70
2017-10-21T21:10:19.192Z,12.60
2017-10-21T21:12:46.622Z,12.50
2017-10-21T21:15:14.809Z,12.50
2017-10-21T21:17:42.257Z,12.50
2017-10-21T21:20:10.464Z,12.50
2017-10-21T21:22:37.905Z,12.50
2017-10-21T21:25:05.343Z,12.60
2017-10-21T21:27:33.544Z,12.70
2017-10-21T21:30:01.018Z,12.60
2017-10-21T21:32:28.444Z,12.70
2017-10-21T21:34:55.995Z,12.80
2017-10-21T21:37:24.185Z,12.90
2017-10-21T21:39:51.630Z,12.80
2017-10-21T21:42:19.120Z,12.90
2017-10-21T21:44:46.545Z,13.00
2017-10-21T21:47:13.974Z,13.00
2017-10-21T21:49:41.418Z,12.90
2017-10-21T21:52:08.845Z,12.90
2017-10-21T21:54:36.301Z,12.90
2017-10-21T21:57:03.749Z,12.80
2017-10-21T21:59:31.177Z,12.80
2017-10-21T22:01:59.394Z,12.70
2017-10-21T22:04:26.818Z,12.60
2017-10-21T22:06:55.018Z,12.60
2017-10-21T22:09:22.453Z,12.50
2017-10-21T22:11:49.881Z,12.50
2017-10-21T22:14:17.321Z,12.50
2017-10-21T22:16:44.765Z,12.50
2017-10-21T22:19:12.212Z,12.50
2017-10-21T22:21:39.642Z,12.40
2017-10-21T22:24:07.080Z,12.40
2017-10-21T22:26:35.290Z,12.30
2017-10-21T22:29:02.721Z,12.20
2017-10-21T22:31:30.157Z,12.30
2017-10-21T22:33:58.358Z,12.10
2017-10-21T22:36:26.572Z,12.10
2017-10-21T22:38:54.020Z,12.00
2017-10-21T22:41:21.461Z,12.10
2017-10-21T22:43:48.894Z,12.00
2017-10-21T22:46:17.185Z,12.00
2017-10-21T22:48:44.630Z,11.90
2017-10-21T22:51:12.825Z,12.00
2017-10-21T22:53:40.621Z,11.90
2017-10-21T22:56:08.045Z,12.00
2017-10-21T22:58:35.480Z,12.00
2017-10-21T23:01:03.693Z,12.20
2017-10-21T23:03:31.121Z,12.10
2017-10-21T23:05:58.572Z,12.30
2017-10-21T23:08:26.786Z,12.30
2017-10-21T23:10:54.220Z,12.30
2017-10-21T23:13:21.653Z,12.30
2017-10-21T23:15:49.077Z,12.30
2017-10-21T23:18:16.521Z,12.30
2017-10-21T23:20:43.949Z,12.30
2017-10-21T23:23:11.385Z,12.40
2017-10-21T23:25:39.577Z,12.30
2017-10-21T23:28:07.015Z,12.30
2017-10-21T23:30:34.445Z,12.30
2017-10-21T23:33:01.881Z,12.30
2017-10-21T23:35:29.321Z,12.30
2017-10-21T23:37:56.761Z,12.30
2017-10-21T23:40:24.205Z,12.30
2017-10-21T23:42:52.406Z,12.30
2017-10-21T23:45:19.839Z,12.30
2017-10-21T23:47:48.053Z,12.20
2017-10-21T23:50:15.498Z,12.20
2017-10-21T23:52:42.951Z,12.20
2017-10-21T23:55:10.378Z,12.10
2017-10-21T23:57:38.582Z,12.00
